sensor_id;sensor_type;location;lat;lon;timestamp;temperature;humidity
17154;DHT22;8692;52.164;7.558;2024-02-14T00:00:59;7.50;99.90
17154;DHT22;8692;52.164;7.558;2024-02-14T00:03:27;7.60;99.90
17154;DHT22;8692;52.164;7.558;2024-02-14T00:05:55;7.60;99.90
17154;DHT22;8692;52.164;7.558;2024-02-14T00:08:23;7.60;99.90
17154;DHT22;8692;52.164;7.558;2024-02-14T00:10:52;7.60;99.90
17154;DHT22;8692;52.164;7.558;2024-02-14T00:13:21;7.60;99.90
17154;DHT22;8692;52.164;7.558;2024-02-14T00:15:49;7.60;99.90
17154;DHT22;8692;52.164;7.558;2024-02-14T00:18:18;7.60;99.90
17154;DHT22;8692;52.164;7.558;2024-02-14T00:20:46;7.60;99.90
17154;DHT22;8692;52.164;7.558;2024-02-14T00:23:14;7.60;99.90
17154;DHT22;8692;52.164;7.558;2024-02-14T00:25:42;7.70;99.90
17154;DHT22;8692;52.164;7.558;2024-02-14T00:28:10;7.60;99.90
17154;DHT22;8692;52.164;7.558;2024-02-14T00:30:40;7.60;99.90
17154;DHT22;8692;52.164;7.558;2024-02-14T00:33:08;7.60;99.90
17154;DHT22;8692;52.164;7.558;2024-02-14T00:35:36;7.60;99.90
17154;DHT22;8692;52.164;7.558;2024-02-14T00:38:04;7.70;99.90
17154;DHT22;8692;52.164;7.558;2024-02-14T00:40:33;7.60;99.90
17154;DHT22;8692;52.164;7.558;2024-02-14T00:43:01;7.70;99.90
17154;DHT22;8692;52.164;7.558;2024-02-14T00:45:29;7.60;99.90
17154;DHT22;8692;52.164;7.558;2024-02-14T00:47:58;7.60;99.90
17154;DHT22;8692;52.164;7.558;2024-02-14T00:50:26;7.60;99.90
17154;DHT22;8692;52.164;7.558;2024-02-14T00:52:54;7.60;99.90
17154;DHT22;8692;52.164;7.558;2024-02-14T00:55:22;7.60;99.90
17154;DHT22;8692;52.164;7.558;2024-02-14T00:57:50;7.60;99.90
17154;DHT22;8692;52.164;7.558;2024-02-14T01:00:18;7.60;99.90
17154;DHT22;8692;52.164;7.558;2024-02-14T01:02:46;7.60;99.90
17154;DHT22;8692;52.164;7.558;2024-02-14T01:05:16;7.60;99.90
17154;DHT22;8692;52.164;7.558;2024-02-14T01:07:44;7.60;99.90
17154;DHT22;8692;52.164;7.558;2024-02-14T01:10:13;7.60;99.90
17154;DHT22;8692;52.164;7.558;2024-02-14T01:12:41;7.60;99.90
17154;DHT22;8692;52.164;7.558;2024-02-14T01:15:09;7.60;99.90
17154;DHT22;8692;52.164;7.558;2024-02-14T01:17:37;7.60;99.90
17154;DHT22;8692;52.164;7.558;2024-02-14T01:20:06;7.60;99.90
17154;DHT22;8692;52.164;7.558;2024-02-14T01:22:36;7.60;99.90
17154;DHT22;8692;52.164;7.558;2024-02-14T01:25:05;7.50;99.90
17154;DHT22;8692;52.164;7.558;2024-02-14T01:27:33;7.50;99.90
17154;DHT22;8692;52.164;7.558;2024-02-14T01:30:01;7.60;99.90
17154;DHT22;8692;52.164;7.558;2024-02-14T01:32:32;7.50;99.90
17154;DHT22;8692;52.164;7.558;2024-02-14T01:35:00;7.50;99.90
17154;DHT22;8692;52.164;7.558;2024-02-14T01:37:28;7.50;99.90
17154;DHT22;8692;52.164;7.558;2024-02-14T01:39:58;7.50;99.90
17154;DHT22;8692;52.164;7.558;2024-02-14T01:42:26;7.50;99.90
17154;DHT22;8692;52.164;7.558;2024-02-14T01:44:54;7.50;99.90
17154;DHT22;8692;52.164;7.558;2024-02-14T01:47:22;7.50;99.90
17154;DHT22;8692;52.164;7.558;2024-02-14T01:49:50;7.50;99.90
17154;DHT22;8692;52.164;7.558;2024-02-14T01:52:18;7.50;99.90
17154;DHT22;8692;52.164;7.558;2024-02-14T01:54:47;7.60;99.90
17154;DHT22;8692;52.164;7.558;2024-02-14T01:57:17;7.60;99.90
17154;DHT22;8692;52.164;7.558;2024-02-14T01:59:46;7.50;99.90
17154;DHT22;8692;52.164;7.558;2024-02-14T02:02:14;7.50;99.90
17154;DHT22;8692;52.164;7.558;2024-02-14T02:04:43;7.60;99.90
17154;DHT22;8692;52.164;7.558;2024-02-14T02:07:11;7.60;99.90
17154;DHT22;8692;52.164;7.558;2024-02-14T02:09:39;7.60;99.90
17154;DHT22;8692;52.164;7.558;2024-02-14T02:12:07;7.60;99.90
17154;DHT22;8692;52.164;7.558;2024-02-14T02:14:36;7.60;99.90
17154;DHT22;8692;52.164;7.558;2024-02-14T02:17:07;7.60;99.90
17154;DHT22;8692;52.164;7.558;2024-02-14T02:19:38;7.60;99.90
17154;DHT22;8692;52.164;7.558;2024-02-14T02:22:06;7.60;99.90
17154;DHT22;8692;52.164;7.558;2024-02-14T02:24:36;7.60;99.90
17154;DHT22;8692;52.164;7.558;2024-02-14T02:27:04;7.60;99.90
17154;DHT22;8692;52.164;7.558;2024-02-14T02:29:32;7.60;99.90
17154;DHT22;8692;52.164;7.558;2024-02-14T02:32:00;7.60;99.90
17154;DHT22;8692;52.164;7.558;2024-02-14T02:34:28;7.60;99.90
17154;DHT22;8692;52.164;7.558;2024-02-14T02:36:56;7.60;99.90
17154;DHT22;8692;52.164;7.558;2024-02-14T02:39:24;7.60;99.90
17154;DHT22;8692;52.164;7.558;2024-02-14T02:41:54;7.60;99.90
17154;DHT22;8692;52.164;7.558;2024-02-14T02:44:24;7.60;99.90
17154;DHT22;8692;52.164;7.558;2024-02-14T02:46:53;7.60;99.90
17154;DHT22;8692;52.164;7.558;2024-02-14T02:49:22;7.60;99.90
17154;DHT22;8692;52.164;7.558;2024-02-14T02:51:50;7.60;99.90
17154;DHT22;8692;52.164;7.558;2024-02-14T02:54:19;7.60;99.90
17154;DHT22;8692;52.164;7.558;2024-02-14T02:56:47;7.60;99.90
17154;DHT22;8692;52.164;7.558;2024-02-14T02:59:16;7.60;99.90
17154;DHT22;8692;52.164;7.558;2024-02-14T03:01:45;7.70;99.90
17154;DHT22;8692;52.164;7.558;2024-02-14T03:04:13;7.60;99.90
17154;DHT22;8692;52.164;7.558;2024-02-14T03:06:41;7.70;99.90
17154;DHT22;8692;52.164;7.558;2024-02-14T03:09:11;7.70;99.90
17154;DHT22;8692;52.164;7.558;2024-02-14T03:11:41;7.70;99.90
17154;DHT22;8692;52.164;7.558;2024-02-14T03:14:09;7.70;99.90
17154;DHT22;8692;52.164;7.558;2024-02-14T03:16:38;7.70;99.90
17154;DHT22;8692;52.164;7.558;2024-02-14T03:19:06;7.70;99.90
17154;DHT22;8692;52.164;7.558;2024-02-14T03:21:34;7.70;99.90
17154;DHT22;8692;52.164;7.558;2024-02-14T03:24:02;7.80;99.90
17154;DHT22;8692;52.164;7.558;2024-02-14T03:26:32;7.80;99.90
17154;DHT22;8692;52.164;7.558;2024-02-14T03:29:01;7.80;99.90
17154;DHT22;8692;52.164;7.558;2024-02-14T03:31:28;7.80;99.90
17154;DHT22;8692;52.164;7.558;2024-02-14T03:33:58;7.80;99.90
17154;DHT22;8692;52.164;7.558;2024-02-14T03:36:27;7.80;99.90
17154;DHT22;8692;52.164;7.558;2024-02-14T03:38:57;7.90;99.90
17154;DHT22;8692;52.164;7.558;2024-02-14T03:41:25;7.90;99.90
17154;DHT22;8692;52.164;7.558;2024-02-14T03:43:54;7.90;99.90
17154;DHT22;8692;52.164;7.558;2024-02-14T03:46:24;7.90;99.90
17154;DHT22;8692;52.164;7.558;2024-02-14T03:48:52;7.90;99.90
17154;DHT22;8692;52.164;7.558;2024-02-14T03:51:23;7.90;99.90
17154;DHT22;8692;52.164;7.558;2024-02-14T03:53:51;7.90;99.90
17154;DHT22;8692;52.164;7.558;2024-02-14T03:56:20;7.90;99.90
17154;DHT22;8692;52.164;7.558;2024-02-14T03:58:47;7.90;99.90
17154;DHT22;8692;52.164;7.558;2024-02-14T04:01:15;8.00;99.90
17154;DHT22;8692;52.164;7.558;2024-02-14T04:03:43;8.00;99.90
17154;DHT22;8692;52.164;7.558;2024-02-14T04:06:14;8.00;99.90
17154;DHT22;8692;52.164;7.558;2024-02-14T04:08:43;8.00;99.90
17154;DHT22;8692;52.164;7.558;2024-02-14T04:11:11;8.00;99.90
17154;DHT22;8692;52.164;7.558;2024-02-14T04:13:40;8.00;99.90
17154;DHT22;8692;52.164;7.558;2024-02-14T04:16:08;8.00;99.90
17154;DHT22;8692;52.164;7.558;2024-02-14T04:18:36;8.00;99.90
17154;DHT22;8692;52.164;7.558;2024-02-14T04:21:07;8.10;99.90
17154;DHT22;8692;52.164;7.558;2024-02-14T04:23:35;8.10;99.90
17154;DHT22;8692;52.164;7.558;2024-02-14T04:26:05;8.10;99.90
17154;DHT22;8692;52.164;7.558;2024-02-14T04:28:33;8.20;99.90
17154;DHT22;8692;52.164;7.558;2024-02-14T04:31:01;8.20;99.90
17154;DHT22;8692;52.164;7.558;2024-02-14T04:33:29;8.20;99.90
17154;DHT22;8692;52.164;7.558;2024-02-14T04:35:57;8.20;99.90
17154;DHT22;8692;52.164;7.558;2024-02-14T04:38:25;8.20;99.90
17154;DHT22;8692;52.164;7.558;2024-02-14T04:40:55;8.20;99.90
17154;DHT22;8692;52.164;7.558;2024-02-14T04:43:26;8.20;99.90
17154;DHT22;8692;52.164;7.558;2024-02-14T04:45:54;8.20;99.90
17154;DHT22;8692;52.164;7.558;2024-02-14T04:48:22;8.20;99.90
17154;DHT22;8692;52.164;7.558;2024-02-14T04:50:51;8.20;99.90
17154;DHT22;8692;52.164;7.558;2024-02-14T04:53:19;8.20;99.90
17154;DHT22;8692;52.164;7.558;2024-02-14T04:55:47;8.30;99.90
17154;DHT22;8692;52.164;7.558;2024-02-14T04:58:15;8.30;99.90
17154;DHT22;8692;52.164;7.558;2024-02-14T05:00:45;8.30;99.90
17154;DHT22;8692;52.164;7.558;2024-02-14T05:03:13;8.30;99.90
17154;DHT22;8692;52.164;7.558;2024-02-14T05:05:41;8.30;99.90
17154;DHT22;8692;52.164;7.558;2024-02-14T05:08:09;8.30;99.90
17154;DHT22;8692;52.164;7.558;2024-02-14T05:10:37;8.30;99.90
17154;DHT22;8692;52.164;7.558;2024-02-14T05:13:05;8.40;99.90
17154;DHT22;8692;52.164;7.558;2024-02-14T05:15:33;8.40;99.90
17154;DHT22;8692;52.164;7.558;2024-02-14T05:18:03;8.40;99.90
17154;DHT22;8692;52.164;7.558;2024-02-14T05:20:32;8.40;99.90
17154;DHT22;8692;52.164;7.558;2024-02-14T05:23:00;8.40;99.90
17154;DHT22;8692;52.164;7.558;2024-02-14T05:25:30;8.40;99.90
17154;DHT22;8692;52.164;7.558;2024-02-14T05:27:59;8.40;99.90
17154;DHT22;8692;52.164;7.558;2024-02-14T05:30:28;8.40;99.90
17154;DHT22;8692;52.164;7.558;2024-02-14T05:32:56;8.50;99.90
17154;DHT22;8692;52.164;7.558;2024-02-14T05:35:25;8.50;99.90
17154;DHT22;8692;52.164;7.558;2024-02-14T05:37:53;8.50;99.90
17154;DHT22;8692;52.164;7.558;2024-02-14T05:40:22;8.50;99.90
17154;DHT22;8692;52.164;7.558;2024-02-14T05:42:51;8.50;99.90
17154;DHT22;8692;52.164;7.558;2024-02-14T05:45:19;8.50;99.90
17154;DHT22;8692;52.164;7.558;2024-02-14T05:47:47;8.50;99.90
17154;DHT22;8692;52.164;7.558;2024-02-14T05:50:15;8.50;99.90
17154;DHT22;8692;52.164;7.558;2024-02-14T05:52:44;8.60;99.90
17154;DHT22;8692;52.164;7.558;2024-02-14T05:55:13;8.60;99.90
17154;DHT22;8692;52.164;7.558;2024-02-14T05:57:41;8.60;99.90
17154;DHT22;8692;52.164;7.558;2024-02-14T06:00:10;8.60;99.90
17154;DHT22;8692;52.164;7.558;2024-02-14T06:02:39;8.70;99.90
17154;DHT22;8692;52.164;7.558;2024-02-14T06:05:08;8.70;99.90
17154;DHT22;8692;52.164;7.558;2024-02-14T06:07:37;8.70;99.90
17154;DHT22;8692;52.164;7.558;2024-02-14T06:10:07;8.70;99.90
17154;DHT22;8692;52.164;7.558;2024-02-14T06:12:36;8.70;99.90
17154;DHT22;8692;52.164;7.558;2024-02-14T06:15:05;8.80;99.90
17154;DHT22;8692;52.164;7.558;2024-02-14T06:17:34;8.80;99.90
17154;DHT22;8692;52.164;7.558;2024-02-14T06:20:02;8.80;99.90
17154;DHT22;8692;52.164;7.558;2024-02-14T06:22:32;8.80;99.90
17154;DHT22;8692;52.164;7.558;2024-02-14T06:25:07;8.80;99.90
17154;DHT22;8692;52.164;7.558;2024-02-14T06:27:35;8.80;99.90
17154;DHT22;8692;52.164;7.558;2024-02-14T06:30:04;8.90;99.90
17154;DHT22;8692;52.164;7.558;2024-02-14T06:32:32;8.90;99.90
17154;DHT22;8692;52.164;7.558;2024-02-14T06:35:02;8.90;99.90
17154;DHT22;8692;52.164;7.558;2024-02-14T06:37:30;9.00;99.90
17154;DHT22;8692;52.164;7.558;2024-02-14T06:40:15;9.00;99.90
17154;DHT22;8692;52.164;7.558;2024-02-14T06:42:43;9.00;99.90
17154;DHT22;8692;52.164;7.558;2024-02-14T06:45:11;9.00;99.90
17154;DHT22;8692;52.164;7.558;2024-02-14T06:47:39;9.00;99.90
17154;DHT22;8692;52.164;7.558;2024-02-14T06:50:08;9.00;99.90
17154;DHT22;8692;52.164;7.558;2024-02-14T06:52:37;9.10;99.90
17154;DHT22;8692;52.164;7.558;2024-02-14T06:55:06;9.10;99.90
17154;DHT22;8692;52.164;7.558;2024-02-14T06:57:35;9.10;99.90
17154;DHT22;8692;52.164;7.558;2024-02-14T07:00:04;9.10;99.90
17154;DHT22;8692;52.164;7.558;2024-02-14T07:02:34;9.10;99.90
17154;DHT22;8692;52.164;7.558;2024-02-14T07:05:02;9.10;99.90
17154;DHT22;8692;52.164;7.558;2024-02-14T07:07:30;9.10;99.90
17154;DHT22;8692;52.164;7.558;2024-02-14T07:09:58;9.20;99.90
17154;DHT22;8692;52.164;7.558;2024-02-14T07:12:26;9.20;99.90
17154;DHT22;8692;52.164;7.558;2024-02-14T07:14:57;9.20;99.90
17154;DHT22;8692;52.164;7.558;2024-02-14T07:17:25;9.20;99.90
17154;DHT22;8692;52.164;7.558;2024-02-14T07:19:53;9.20;99.90
17154;DHT22;8692;52.164;7.558;2024-02-14T07:22:21;9.20;99.90
17154;DHT22;8692;52.164;7.558;2024-02-14T07:24:49;9.20;99.90
17154;DHT22;8692;52.164;7.558;2024-02-14T07:27:17;9.20;99.90
17154;DHT22;8692;52.164;7.558;2024-02-14T07:29:45;9.20;99.90
17154;DHT22;8692;52.164;7.558;2024-02-14T07:32:15;9.30;99.90
17154;DHT22;8692;52.164;7.558;2024-02-14T07:34:43;9.30;99.90
17154;DHT22;8692;52.164;7.558;2024-02-14T07:37:11;9.30;99.90
17154;DHT22;8692;52.164;7.558;2024-02-14T07:39:41;9.30;99.90
17154;DHT22;8692;52.164;7.558;2024-02-14T07:42:09;9.30;99.90
17154;DHT22;8692;52.164;7.558;2024-02-14T07:44:38;9.30;99.90
17154;DHT22;8692;52.164;7.558;2024-02-14T07:47:06;9.30;99.90
17154;DHT22;8692;52.164;7.558;2024-02-14T07:49:35;9.40;99.90
17154;DHT22;8692;52.164;7.558;2024-02-14T07:52:03;9.40;99.90
17154;DHT22;8692;52.164;7.558;2024-02-14T07:54:31;9.40;99.90
17154;DHT22;8692;52.164;7.558;2024-02-14T07:56:59;9.40;99.90
17154;DHT22;8692;52.164;7.558;2024-02-14T07:59:27;9.50;99.90
17154;DHT22;8692;52.164;7.558;2024-02-14T08:01:57;9.50;99.90
17154;DHT22;8692;52.164;7.558;2024-02-14T08:04:26;9.50;99.90
17154;DHT22;8692;52.164;7.558;2024-02-14T08:06:55;9.50;99.90
17154;DHT22;8692;52.164;7.558;2024-02-14T08:09:23;9.50;99.90
17154;DHT22;8692;52.164;7.558;2024-02-14T08:11:51;9.50;99.90
17154;DHT22;8692;52.164;7.558;2024-02-14T08:14:20;9.50;99.90
17154;DHT22;8692;52.164;7.558;2024-02-14T08:16:48;9.50;99.90
17154;DHT22;8692;52.164;7.558;2024-02-14T08:19:16;9.50;99.90
17154;DHT22;8692;52.164;7.558;2024-02-14T08:21:45;9.50;99.90
17154;DHT22;8692;52.164;7.558;2024-02-14T08:24:14;9.50;99.90
17154;DHT22;8692;52.164;7.558;2024-02-14T08:26:44;9.50;99.90
17154;DHT22;8692;52.164;7.558;2024-02-14T08:29:12;9.50;99.90
17154;DHT22;8692;52.164;7.558;2024-02-14T08:31:40;9.50;99.90
17154;DHT22;8692;52.164;7.558;2024-02-14T08:34:08;9.60;99.90
17154;DHT22;8692;52.164;7.558;2024-02-14T08:36:37;9.60;99.90
17154;DHT22;8692;52.164;7.558;2024-02-14T08:39:07;9.60;99.90
17154;DHT22;8692;52.164;7.558;2024-02-14T08:41:38;9.60;99.90
17154;DHT22;8692;52.164;7.558;2024-02-14T08:44:10;9.60;99.90
17154;DHT22;8692;52.164;7.558;2024-02-14T08:46:38;9.60;99.90
17154;DHT22;8692;52.164;7.558;2024-02-14T08:49:09;9.70;99.90
17154;DHT22;8692;52.164;7.558;2024-02-14T08:51:38;9.70;99.90
17154;DHT22;8692;52.164;7.558;2024-02-14T08:54:06;9.70;99.90
17154;DHT22;8692;52.164;7.558;2024-02-14T08:56:35;9.70;99.90
17154;DHT22;8692;52.164;7.558;2024-02-14T08:59:05;9.70;99.90
17154;DHT22;8692;52.164;7.558;2024-02-14T09:01:33;9.70;99.90
17154;DHT22;8692;52.164;7.558;2024-02-14T09:04:03;9.70;99.90
17154;DHT22;8692;52.164;7.558;2024-02-14T09:06:31;9.70;99.90
17154;DHT22;8692;52.164;7.558;2024-02-14T09:09:00;9.70;99.90
17154;DHT22;8692;52.164;7.558;2024-02-14T09:11:28;9.70;99.90
17154;DHT22;8692;52.164;7.558;2024-02-14T09:13:56;9.70;99.90
17154;DHT22;8692;52.164;7.558;2024-02-14T09:16:30;9.70;99.90
17154;DHT22;8692;52.164;7.558;2024-02-14T09:18:58;9.70;99.90
17154;DHT22;8692;52.164;7.558;2024-02-14T09:21:27;9.70;99.90
17154;DHT22;8692;52.164;7.558;2024-02-14T09:23:56;9.70;99.90
17154;DHT22;8692;52.164;7.558;2024-02-14T09:26:24;9.80;99.90
17154;DHT22;8692;52.164;7.558;2024-02-14T09:28:53;9.80;99.90
17154;DHT22;8692;52.164;7.558;2024-02-14T09:31:21;9.80;99.90
17154;DHT22;8692;52.164;7.558;2024-02-14T09:33:50;9.80;99.90
17154;DHT22;8692;52.164;7.558;2024-02-14T09:36:23;9.80;99.90
17154;DHT22;8692;52.164;7.558;2024-02-14T09:38:52;9.80;99.90
17154;DHT22;8692;52.164;7.558;2024-02-14T09:41:25;9.90;99.90
17154;DHT22;8692;52.164;7.558;2024-02-14T09:43:54;9.90;99.90
17154;DHT22;8692;52.164;7.558;2024-02-14T09:46:24;9.90;99.90
17154;DHT22;8692;52.164;7.558;2024-02-14T09:48:54;9.90;99.90
17154;DHT22;8692;52.164;7.558;2024-02-14T09:51:23;10.00;99.90
17154;DHT22;8692;52.164;7.558;2024-02-14T09:53:54;10.00;99.90
17154;DHT22;8692;52.164;7.558;2024-02-14T09:56:22;10.00;99.90
17154;DHT22;8692;52.164;7.558;2024-02-14T09:58:50;10.00;99.90
17154;DHT22;8692;52.164;7.558;2024-02-14T10:01:23;10.00;99.90
17154;DHT22;8692;52.164;7.558;2024-02-14T10:03:54;10.00;99.90
17154;DHT22;8692;52.164;7.558;2024-02-14T10:06:22;10.10;99.90
17154;DHT22;8692;52.164;7.558;2024-02-14T10:08:50;10.10;99.90
17154;DHT22;8692;52.164;7.558;2024-02-14T10:11:30;10.10;99.90
17154;DHT22;8692;52.164;7.558;2024-02-14T10:13:59;10.10;99.90
17154;DHT22;8692;52.164;7.558;2024-02-14T10:16:30;10.20;99.90
17154;DHT22;8692;52.164;7.558;2024-02-14T10:18:59;10.20;99.90
17154;DHT22;8692;52.164;7.558;2024-02-14T10:21:28;10.30;99.90
17154;DHT22;8692;52.164;7.558;2024-02-14T10:23:59;10.30;99.90
17154;DHT22;8692;52.164;7.558;2024-02-14T10:26:28;10.30;99.90
17154;DHT22;8692;52.164;7.558;2024-02-14T10:28:57;10.40;99.90
17154;DHT22;8692;52.164;7.558;2024-02-14T10:31:25;10.40;99.90
17154;DHT22;8692;52.164;7.558;2024-02-14T10:33:55;10.40;99.90
17154;DHT22;8692;52.164;7.558;2024-02-14T10:36:25;10.40;99.90
17154;DHT22;8692;52.164;7.558;2024-02-14T10:38:54;10.40;99.90
17154;DHT22;8692;52.164;7.558;2024-02-14T10:41:24;10.40;99.90
17154;DHT22;8692;52.164;7.558;2024-02-14T10:43:58;10.50;99.90
17154;DHT22;8692;52.164;7.558;2024-02-14T10:46:26;10.50;99.90
17154;DHT22;8692;52.164;7.558;2024-02-14T10:49:02;10.50;99.90
17154;DHT22;8692;52.164;7.558;2024-02-14T10:51:33;10.50;99.90
17154;DHT22;8692;52.164;7.558;2024-02-14T10:54:04;10.50;99.90
17154;DHT22;8692;52.164;7.558;2024-02-14T10:56:39;10.50;99.90
17154;DHT22;8692;52.164;7.558;2024-02-14T10:59:09;10.50;99.90
17154;DHT22;8692;52.164;7.558;2024-02-14T11:01:40;10.50;99.90
17154;DHT22;8692;52.164;7.558;2024-02-14T11:04:09;10.50;99.90
17154;DHT22;8692;52.164;7.558;2024-02-14T11:06:45;10.50;99.90
17154;DHT22;8692;52.164;7.558;2024-02-14T11:09:15;10.50;99.90
17154;DHT22;8692;52.164;7.558;2024-02-14T11:11:44;10.60;99.90
17154;DHT22;8692;52.164;7.558;2024-02-14T11:14:15;10.60;99.90
17154;DHT22;8692;52.164;7.558;2024-02-14T11:16:45;10.60;99.90
17154;DHT22;8692;52.164;7.558;2024-02-14T11:19:13;10.60;99.90
17154;DHT22;8692;52.164;7.558;2024-02-14T11:21:46;10.60;99.90
17154;DHT22;8692;52.164;7.558;2024-02-14T11:24:15;10.60;99.90
17154;DHT22;8692;52.164;7.558;2024-02-14T11:26:47;10.60;99.90
17154;DHT22;8692;52.164;7.558;2024-02-14T11:29:17;10.60;99.90
17154;DHT22;8692;52.164;7.558;2024-02-14T11:31:57;10.70;99.90
17154;DHT22;8692;52.164;7.558;2024-02-14T11:34:27;10.60;99.90
17154;DHT22;8692;52.164;7.558;2024-02-14T11:36:56;10.60;99.90
17154;DHT22;8692;52.164;7.558;2024-02-14T11:39:26;10.60;99.90
17154;DHT22;8692;52.164;7.558;2024-02-14T11:41:57;10.60;99.90
17154;DHT22;8692;52.164;7.558;2024-02-14T11:44:26;10.60;99.90
17154;DHT22;8692;52.164;7.558;2024-02-14T11:46:54;10.60;99.90
17154;DHT22;8692;52.164;7.558;2024-02-14T11:49:22;10.60;99.90
17154;DHT22;8692;52.164;7.558;2024-02-14T11:51:50;10.60;99.90
17154;DHT22;8692;52.164;7.558;2024-02-14T11:54:21;10.70;99.90
17154;DHT22;8692;52.164;7.558;2024-02-14T11:56:50;10.70;99.90
17154;DHT22;8692;52.164;7.558;2024-02-14T11:59:18;10.70;99.90
17154;DHT22;8692;52.164;7.558;2024-02-14T12:01:47;10.70;99.90
17154;DHT22;8692;52.164;7.558;2024-02-14T12:04:18;10.70;99.90
17154;DHT22;8692;52.164;7.558;2024-02-14T12:06:46;10.70;99.90
17154;DHT22;8692;52.164;7.558;2024-02-14T12:09:14;10.70;99.90
17154;DHT22;8692;52.164;7.558;2024-02-14T12:11:44;10.70;99.90
17154;DHT22;8692;52.164;7.558;2024-02-14T12:14:13;10.70;99.90
17154;DHT22;8692;52.164;7.558;2024-02-14T12:16:41;10.70;99.90
17154;DHT22;8692;52.164;7.558;2024-02-14T12:19:14;10.70;99.90
17154;DHT22;8692;52.164;7.558;2024-02-14T12:21:44;10.70;99.90
17154;DHT22;8692;52.164;7.558;2024-02-14T12:24:12;10.70;99.90
17154;DHT22;8692;52.164;7.558;2024-02-14T12:26:43;10.70;99.90
17154;DHT22;8692;52.164;7.558;2024-02-14T12:29:12;10.70;99.90
17154;DHT22;8692;52.164;7.558;2024-02-14T12:31:41;10.70;99.90
17154;DHT22;8692;52.164;7.558;2024-02-14T12:34:11;10.80;99.90
17154;DHT22;8692;52.164;7.558;2024-02-14T12:36:40;10.80;99.90
17154;DHT22;8692;52.164;7.558;2024-02-14T12:39:08;10.80;99.90
17154;DHT22;8692;52.164;7.558;2024-02-14T12:41:39;10.80;99.90
17154;DHT22;8692;52.164;7.558;2024-02-14T12:44:09;10.90;99.90
17154;DHT22;8692;52.164;7.558;2024-02-14T12:46:37;10.90;99.90
17154;DHT22;8692;52.164;7.558;2024-02-14T12:49:05;10.90;99.90
17154;DHT22;8692;52.164;7.558;2024-02-14T12:51:36;10.90;99.90
17154;DHT22;8692;52.164;7.558;2024-02-14T12:54:05;11.00;99.90
17154;DHT22;8692;52.164;7.558;2024-02-14T12:56:34;11.00;99.90
17154;DHT22;8692;52.164;7.558;2024-02-14T12:59:02;11.00;99.90
17154;DHT22;8692;52.164;7.558;2024-02-14T13:01:31;11.00;99.90
17154;DHT22;8692;52.164;7.558;2024-02-14T13:03:59;11.00;99.90
17154;DHT22;8692;52.164;7.558;2024-02-14T13:06:29;11.10;99.90
17154;DHT22;8692;52.164;7.558;2024-02-14T13:08:57;11.10;99.90
17154;DHT22;8692;52.164;7.558;2024-02-14T13:11:27;11.10;99.90
17154;DHT22;8692;52.164;7.558;2024-02-14T13:13:55;11.10;99.90
17154;DHT22;8692;52.164;7.558;2024-02-14T13:16:23;11.20;99.90
17154;DHT22;8692;52.164;7.558;2024-02-14T13:18:52;11.20;99.90
17154;DHT22;8692;52.164;7.558;2024-02-14T13:21:20;11.20;99.90
17154;DHT22;8692;52.164;7.558;2024-02-14T13:23:48;11.20;99.90
17154;DHT22;8692;52.164;7.558;2024-02-14T13:26:16;11.20;99.90
17154;DHT22;8692;52.164;7.558;2024-02-14T13:28:44;11.20;99.90
17154;DHT22;8692;52.164;7.558;2024-02-14T13:31:12;11.30;99.90
17154;DHT22;8692;52.164;7.558;2024-02-14T13:33:41;11.20;99.90
17154;DHT22;8692;52.164;7.558;2024-02-14T13:36:10;11.30;99.90
17154;DHT22;8692;52.164;7.558;2024-02-14T13:38:38;11.30;99.90
17154;DHT22;8692;52.164;7.558;2024-02-14T13:41:06;11.30;99.90
17154;DHT22;8692;52.164;7.558;2024-02-14T13:43:34;11.30;99.90
17154;DHT22;8692;52.164;7.558;2024-02-14T13:46:03;11.30;99.90
17154;DHT22;8692;52.164;7.558;2024-02-14T13:48:31;11.30;99.90
17154;DHT22;8692;52.164;7.558;2024-02-14T13:50:59;11.30;99.90
17154;DHT22;8692;52.164;7.558;2024-02-14T13:53:31;11.30;99.90
17154;DHT22;8692;52.164;7.558;2024-02-14T13:55:59;11.30;99.90
17154;DHT22;8692;52.164;7.558;2024-02-14T13:58:27;11.30;99.90
17154;DHT22;8692;52.164;7.558;2024-02-14T14:00:56;11.30;99.90
17154;DHT22;8692;52.164;7.558;2024-02-14T14:03:25;11.30;99.90
17154;DHT22;8692;52.164;7.558;2024-02-14T14:05:53;11.30;99.90
17154;DHT22;8692;52.164;7.558;2024-02-14T14:08:23;11.30;99.90
17154;DHT22;8692;52.164;7.558;2024-02-14T14:10:52;11.40;99.90
17154;DHT22;8692;52.164;7.558;2024-02-14T14:13:21;11.40;99.90
17154;DHT22;8692;52.164;7.558;2024-02-14T14:15:48;11.30;99.90
17154;DHT22;8692;52.164;7.558;2024-02-14T14:18:18;11.40;99.90
17154;DHT22;8692;52.164;7.558;2024-02-14T14:20:46;11.40;99.90
17154;DHT22;8692;52.164;7.558;2024-02-14T14:23:14;11.40;99.90
17154;DHT22;8692;52.164;7.558;2024-02-14T14:25:42;11.40;99.90
17154;DHT22;8692;52.164;7.558;2024-02-14T14:28:12;11.40;99.90
17154;DHT22;8692;52.164;7.558;2024-02-14T14:30:41;11.40;99.90
17154;DHT22;8692;52.164;7.558;2024-02-14T14:33:09;11.40;99.90
17154;DHT22;8692;52.164;7.558;2024-02-14T14:35:40;11.50;99.90
17154;DHT22;8692;52.164;7.558;2024-02-14T14:38:09;11.40;99.90
17154;DHT22;8692;52.164;7.558;2024-02-14T14:40:37;11.40;99.90
17154;DHT22;8692;52.164;7.558;2024-02-14T14:43:05;11.40;99.90
17154;DHT22;8692;52.164;7.558;2024-02-14T14:45:35;11.40;99.90
17154;DHT22;8692;52.164;7.558;2024-02-14T14:48:05;11.40;99.90
17154;DHT22;8692;52.164;7.558;2024-02-14T14:50:34;11.40;99.90
17154;DHT22;8692;52.164;7.558;2024-02-14T14:53:04;11.40;99.90
17154;DHT22;8692;52.164;7.558;2024-02-14T14:55:49;11.30;99.90
17154;DHT22;8692;52.164;7.558;2024-02-14T14:58:17;11.30;99.90
17154;DHT22;8692;52.164;7.558;2024-02-14T15:00:47;11.30;99.90
17154;DHT22;8692;52.164;7.558;2024-02-14T15:03:15;11.30;99.90
17154;DHT22;8692;52.164;7.558;2024-02-14T15:05:43;11.30;99.90
17154;DHT22;8692;52.164;7.558;2024-02-14T15:08:11;11.30;99.90
17154;DHT22;8692;52.164;7.558;2024-02-14T15:10:39;11.30;99.90
17154;DHT22;8692;52.164;7.558;2024-02-14T15:13:07;11.30;99.90
17154;DHT22;8692;52.164;7.558;2024-02-14T15:15:36;11.30;99.90
17154;DHT22;8692;52.164;7.558;2024-02-14T15:18:05;11.20;99.90
17154;DHT22;8692;52.164;7.558;2024-02-14T15:20:34;11.20;99.90
17154;DHT22;8692;52.164;7.558;2024-02-14T15:23:03;11.30;99.90
17154;DHT22;8692;52.164;7.558;2024-02-14T15:25:31;11.30;99.90
17154;DHT22;8692;52.164;7.558;2024-02-14T15:27:59;11.30;99.90
17154;DHT22;8692;52.164;7.558;2024-02-14T15:30:27;11.30;99.90
17154;DHT22;8692;52.164;7.558;2024-02-14T15:33:14;11.30;99.90
17154;DHT22;8692;52.164;7.558;2024-02-14T15:35:51;11.30;99.90
17154;DHT22;8692;52.164;7.558;2024-02-14T15:38:20;11.30;99.90
17154;DHT22;8692;52.164;7.558;2024-02-14T15:40:49;11.30;99.90
17154;DHT22;8692;52.164;7.558;2024-02-14T15:43:20;11.30;99.90
17154;DHT22;8692;52.164;7.558;2024-02-14T15:45:48;11.30;99.90
17154;DHT22;8692;52.164;7.558;2024-02-14T15:48:18;11.30;99.90
17154;DHT22;8692;52.164;7.558;2024-02-14T15:50:47;11.30;99.90
17154;DHT22;8692;52.164;7.558;2024-02-14T15:53:15;11.30;99.90
17154;DHT22;8692;52.164;7.558;2024-02-14T15:55:43;11.30;99.90
17154;DHT22;8692;52.164;7.558;2024-02-14T15:58:12;11.30;99.90
17154;DHT22;8692;52.164;7.558;2024-02-14T16:00:41;11.30;99.90
17154;DHT22;8692;52.164;7.558;2024-02-14T16:03:09;11.20;99.90
17154;DHT22;8692;52.164;7.558;2024-02-14T16:05:40;11.20;99.90